createdAt,value
2023-02-28T00:00:23.653Z,-2.60
2023-02-28T00:02:50.697Z,-2.70
2023-02-28T00:05:23.112Z,-2.60
2023-02-28T00:07:50.984Z,-2.60
2023-02-28T00:10:24.643Z,-2.70
2023-02-28T00:12:52.854Z,-2.70
2023-02-28T00:15:20.832Z,-2.70
2023-02-28T00:17:47.774Z,-2.70
2023-02-28T00:20:15.039Z,-2.70
2023-02-28T00:22:46.249Z,-2.70
2023-02-28T00:25:16.087Z,-2.70
2023-02-28T00:27:43.190Z,-2.70
2023-02-28T00:30:17.005Z,-2.70
2023-02-28T00:32:44.594Z,-2.70
2023-02-28T00:35:12.611Z,-2.70
2023-02-28T00:37:40.076Z,-2.80
2023-02-28T00:40:08.422Z,-2.70
2023-02-28T00:42:36.341Z,-2.70
2023-02-28T00:45:05.792Z,-2.70
2023-02-28T00:47:33.566Z,-2.80
2023-02-28T00:50:01.397Z,-2.80
2023-02-28T00:52:28.526Z,-2.80
2023-02-28T00:54:55.755Z,-2.80
2023-02-28T00:57:22.756Z,-2.70
2023-02-28T00:59:49.901Z,-2.70
2023-02-28T01:02:16.903Z,-2.70
2023-02-28T01:04:43.835Z,-2.70
2023-02-28T01:07:10.902Z,-2.70
2023-02-28T01:09:37.918Z,-2.80
2023-02-28T01:12:05.122Z,-2.80
2023-02-28T01:14:32.024Z,-2.80
2023-02-28T01:16:58.946Z,-2.80
2023-02-28T01:19:25.845Z,-2.80
2023-02-28T01:21:52.859Z,-2.80
2023-02-28T01:24:20.381Z,-2.70
2023-02-28T01:26:47.395Z,-2.70
2023-02-28T01:29:14.285Z,-2.70
2023-02-28T01:31:41.283Z,-2.70
2023-02-28T01:34:08.245Z,-2.70
2023-02-28T01:36:35.312Z,-2.70
2023-02-28T01:39:02.218Z,-2.70
2023-02-28T01:41:32.910Z,-2.70
2023-02-28T01:44:06.519Z,-2.70
2023-02-28T01:46:35.844Z,-2.70
2023-02-28T01:49:17.759Z,-2.70
2023-02-28T01:51:56.121Z,-2.70
2023-02-28T01:54:28.240Z,-2.70
2023-02-28T01:57:16.642Z,-2.70
2023-02-28T02:00:05.351Z,-2.80
2023-02-28T02:02:32.628Z,-2.80
2023-02-28T02:05:10.078Z,-2.80
2023-02-28T02:07:40.864Z,-2.80
2023-02-28T02:10:16.232Z,-2.80
2023-02-28T02:12:54.973Z,-2.80
2023-02-28T02:15:47.677Z,-2.80
2023-02-28T02:18:26.994Z,-2.80
2023-02-28T02:21:15.777Z,-2.80
2023-02-28T02:24:13.366Z,-2.90
2023-02-28T02:27:04.583Z,-2.90
2023-02-28T02:30:21.997Z,-2.90
2023-02-28T02:32:51.925Z,-2.90
2023-02-28T02:35:21.998Z,-2.90
2023-02-28T02:38:14.814Z,-3.00
2023-02-28T02:41:05.874Z,-3.00
2023-02-28T02:44:08.327Z,-3.00
2023-02-28T02:46:45.199Z,-3.00
2023-02-28T02:49:21.571Z,-3.00
2023-02-28T02:51:50.827Z,-3.00
2023-02-28T02:54:33.595Z,-3.10
2023-02-28T02:57:06.237Z,-3.10
2023-02-28T02:59:34.676Z,-3.10
2023-02-28T03:02:05.521Z,-3.10
2023-02-28T03:04:39.478Z,-3.20
2023-02-28T03:07:06.449Z,-3.20
2023-02-28T03:09:36.521Z,-3.20
2023-02-28T03:12:07.540Z,-3.20
2023-02-28T03:15:15.818Z,-3.30
2023-02-28T03:17:51.822Z,-3.30
2023-02-28T03:20:42.070Z,-3.30
2023-02-28T03:23:20.590Z,-3.40
2023-02-28T03:26:08.999Z,-3.30
2023-02-28T03:28:46.403Z,-3.30
2023-02-28T03:31:26.757Z,-3.30
2023-02-28T03:34:09.341Z,-3.40
2023-02-28T03:37:09.853Z,-3.30
2023-02-28T03:39:52.370Z,-3.30
2023-02-28T03:42:27.063Z,-3.30
2023-02-28T03:45:01.400Z,-3.30
2023-02-28T03:47:52.462Z,-3.30
2023-02-28T03:50:23.170Z,-3.30
2023-02-28T03:53:02.382Z,-3.30
2023-02-28T03:55:36.652Z,-3.30
2023-02-28T03:58:08.560Z,-3.30
2023-02-28T04:00:47.911Z,-3.30
2023-02-28T04:03:15.457Z,-3.30
2023-02-28T04:05:56.454Z,-3.30
2023-02-28T04:08:23.911Z,-3.30
2023-02-28T04:11:02.569Z,-3.30
2023-02-28T04:13:29.478Z,-3.30
2023-02-28T04:15:56.551Z,-3.20
2023-02-28T04:18:23.608Z,-3.20
2023-02-28T04:20:50.622Z,-3.20
2023-02-28T04:23:17.548Z,-3.20
2023-02-28T04:25:44.771Z,-3.30
2023-02-28T04:28:11.697Z,-3.20
2023-02-28T04:30:39.444Z,-3.20
2023-02-28T04:33:06.522Z,-3.30
2023-02-28T04:35:33.527Z,-3.30
2023-02-28T04:38:00.594Z,-3.30
2023-02-28T04:40:27.476Z,-3.30
2023-02-28T04:42:54.517Z,-3.30
2023-02-28T04:45:21.423Z,-3.30
2023-02-28T04:47:48.421Z,-3.20
2023-02-28T04:50:15.620Z,-3.30
2023-02-28T04:52:42.622Z,-3.30
2023-02-28T04:55:09.868Z,-3.20
2023-02-28T04:57:36.873Z,-3.30
2023-02-28T05:00:07.677Z,-3.30
2023-02-28T05:02:36.621Z,-3.30
2023-02-28T05:05:03.797Z,-3.30
2023-02-28T05:07:30.734Z,-3.20
2023-02-28T05:09:57.669Z,-3.20
2023-02-28T05:12:24.635Z,-3.30
2023-02-28T05:14:51.632Z,-3.30
2023-02-28T05:17:18.581Z,-3.20
2023-02-28T05:19:45.596Z,-3.20
2023-02-28T05:22:17.898Z,-3.30
2023-02-28T05:24:44.920Z,-3.30
2023-02-28T05:27:12.071Z,-3.30
2023-02-28T05:29:43.120Z,-3.30
2023-02-28T05:32:14.288Z,-3.30
2023-02-28T05:34:41.668Z,-3.30
2023-02-28T05:37:14.218Z,-3.30
2023-02-28T05:39:41.329Z,-3.20
2023-02-28T05:42:08.423Z,-3.20
2023-02-28T05:44:35.341Z,-3.20
2023-02-28T05:47:02.326Z,-3.30
2023-02-28T05:49:29.777Z,-3.30
2023-02-28T05:51:56.897Z,-3.20
2023-02-28T05:54:23.797Z,-3.30
2023-02-28T05:56:50.900Z,-3.30
2023-02-28T05:59:17.824Z,-3.20
2023-02-28T06:01:49.357Z,-3.20
2023-02-28T06:04:30.978Z,-3.10
2023-02-28T06:06:59.429Z,-3.10
2023-02-28T06:09:26.534Z,-3.10
2023-02-28T06:11:53.535Z,-3.10
2023-02-28T06:14:21.852Z,-3.10
2023-02-28T06:16:48.931Z,-3.10
2023-02-28T06:19:16.607Z,-3.00
2023-02-28T06:21:43.813Z,-3.00
2023-02-28T06:24:11.485Z,-3.00
2023-02-28T06:26:38.852Z,-3.00
2023-02-28T06:29:07.312Z,-2.90
2023-02-28T06:31:34.530Z,-2.80
2023-02-28T06:34:01.603Z,-2.80
2023-02-28T06:36:28.805Z,-2.70
2023-02-28T06:38:57.214Z,-2.60
2023-02-28T06:41:26.002Z,-2.60
2023-02-28T06:43:53.737Z,-2.50
2023-02-28T06:46:21.362Z,-2.50
2023-02-28T06:48:48.542Z,-2.50
2023-02-28T06:51:23.438Z,-2.40
2023-02-28T06:53:50.928Z,-2.40
2023-02-28T06:56:19.087Z,-2.40
2023-02-28T06:58:51.312Z,-2.30
2023-02-28T07:01:20.056Z,-2.20
2023-02-28T07:03:47.868Z,-2.30
2023-02-28T07:06:14.736Z,-2.30
2023-02-28T07:08:42.232Z,-2.20
2023-02-28T07:11:09.287Z,-2.10
2023-02-28T07:13:37.217Z,-1.90
2023-02-28T07:16:06.553Z,-1.80
2023-02-28T07:18:33.515Z,-1.50
2023-02-28T07:21:03.521Z,-0.80
2023-02-28T07:23:30.520Z,0.00
2023-02-28T07:25:57.520Z,0.50
2023-02-28T07:28:24.517Z,0.50
2023-02-28T07:30:51.677Z,0.40
2023-02-28T07:33:18.990Z,0.30
2023-02-28T07:35:46.141Z,0.50
2023-02-28T07:38:14.890Z,0.00
2023-02-28T07:40:41.970Z,-0.20
2023-02-28T07:43:09.185Z,-0.30
2023-02-28T07:45:36.232Z,-0.30
2023-02-28T07:48:03.578Z,-0.40
2023-02-28T07:50:32.050Z,-0.30
2023-02-28T07:52:59.826Z,0.20
2023-02-28T07:55:26.782Z,0.60
2023-02-28T07:57:53.950Z,0.50
2023-02-28T08:00:21.146Z,1.50
2023-02-28T08:02:48.072Z,1.80
2023-02-28T08:05:15.136Z,2.10
2023-02-28T08:07:42.112Z,2.10
2023-02-28T08:10:11.049Z,2.60
2023-02-28T08:12:38.161Z,2.70
2023-02-28T08:15:05.534Z,2.60
2023-02-28T08:17:34.361Z,2.70
2023-02-28T08:20:02.499Z,2.80
2023-02-28T08:22:29.914Z,2.30
2023-02-28T08:24:56.916Z,1.40
2023-02-28T08:27:23.824Z,1.00
2023-02-28T08:29:50.800Z,1.10
2023-02-28T08:32:29.414Z,1.20
2023-02-28T08:34:57.341Z,1.10
2023-02-28T08:37:24.603Z,1.30
2023-02-28T08:39:53.337Z,0.90
2023-02-28T08:42:21.936Z,1.00
2023-02-28T08:44:48.989Z,1.00
2023-02-28T08:47:15.947Z,1.00
2023-02-28T08:49:42.975Z,1.00
2023-02-28T08:52:10.191Z,1.20
2023-02-28T08:54:37.274Z,1.50
2023-02-28T08:57:04.798Z,1.70
2023-02-28T08:59:31.924Z,1.50
2023-02-28T09:01:58.975Z,1.50
2023-02-28T09:04:26.372Z,1.80
2023-02-28T09:06:53.288Z,1.90
2023-02-28T09:09:20.196Z,2.00
2023-02-28T09:11:47.116Z,2.00
2023-02-28T09:14:14.143Z,2.20
2023-02-28T09:16:41.163Z,1.90
2023-02-28T09:19:11.291Z,1.80
2023-02-28T09:21:38.326Z,1.90
2023-02-28T09:24:05.578Z,2.00
2023-02-28T09:26:38.914Z,2.10
2023-02-28T09:29:11.144Z,2.30
2023-02-28T09:31:38.242Z,2.70
2023-02-28T09:34:05.883Z,3.10
2023-02-28T09:36:44.685Z,2.60
2023-02-28T09:39:15.448Z,2.50
2023-02-28T09:41:52.214Z,2.60
2023-02-28T09:44:32.084Z,2.60
2023-02-28T09:47:19.770Z,2.60
2023-02-28T09:49:48.969Z,2.40
2023-02-28T09:52:22.420Z,2.30
2023-02-28T09:54:49.677Z,2.30
2023-02-28T09:57:38.114Z,2.20
2023-02-28T10:00:34.379Z,2.30
2023-02-28T10:03:25.925Z,2.70
2023-02-28T10:06:00.124Z,2.90
2023-02-28T10:08:29.196Z,3.10
2023-02-28T10:10:59.228Z,3.20
2023-02-28T10:13:39.177Z,3.20
2023-02-28T10:16:12.212Z,3.40
2023-02-28T10:18:48.457Z,3.30
2023-02-28T10:21:24.628Z,3.50
2023-02-28T10:23:57.674Z,3.50
2023-02-28T10:26:29.528Z,3.60
2023-02-28T10:28:56.813Z,3.80
2023-02-28T10:31:26.011Z,3.60
2023-02-28T10:33:53.428Z,3.60
2023-02-28T10:36:22.078Z,3.40
2023-02-28T10:38:51.226Z,3.80
2023-02-28T10:41:37.376Z,4.10
2023-02-28T10:44:22.774Z,4.50
2023-02-28T10:46:50.639Z,4.60
2023-02-28T10:49:50.790Z,4.50
2023-02-28T10:52:39.152Z,4.10
2023-02-28T10:55:23.027Z,4.10
2023-02-28T10:57:51.063Z,4.50
2023-02-28T11:00:27.456Z,4.50
2023-02-28T11:02:54.457Z,4.10
2023-02-28T11:05:31.804Z,3.90
2023-02-28T11:08:19.450Z,3.60
2023-02-28T11:10:56.944Z,3.50
2023-02-28T11:13:30.664Z,3.80
2023-02-28T11:16:01.243Z,4.10
2023-02-28T11:18:30.586Z,4.30
2023-02-28T11:21:00.745Z,4.40
2023-02-28T11:23:30.637Z,4.50
2023-02-28T11:26:01.447Z,4.60
2023-02-28T11:28:30.461Z,4.40
2023-02-28T11:31:12.830Z,4.40
2023-02-28T11:33:51.305Z,4.50
2023-02-28T11:36:21.561Z,4.60
2023-02-28T11:38:50.704Z,4.80
2023-02-28T11:41:46.910Z,5.20
2023-02-28T11:44:29.040Z,5.30
2023-02-28T11:47:01.888Z,5.40
2023-02-28T11:49:28.862Z,5.60
2023-02-28T11:52:15.672Z,5.50
2023-02-28T11:55:01.669Z,5.20
2023-02-28T11:57:53.993Z,4.90
2023-02-28T12:00:33.839Z,5.10
2023-02-28T12:03:16.278Z,5.40
2023-02-28T12:06:02.127Z,5.30
2023-02-28T12:08:51.014Z,5.60
2023-02-28T12:11:33.072Z,5.70
2023-02-28T12:14:20.535Z,5.50
2023-02-28T12:17:15.116Z,5.60
2023-02-28T12:19:50.134Z,5.50
2023-02-28T12:22:31.788Z,5.30
2023-02-28T12:25:07.817Z,5.00
2023-02-28T12:27:39.830Z,5.10
2023-02-28T12:30:15.737Z,5.40
2023-02-28T12:33:20.148Z,5.40
2023-02-28T12:35:56.755Z,5.30
2023-02-28T12:38:35.870Z,4.90
2023-02-28T12:41:34.649Z,4.80
2023-02-28T12:44:12.799Z,4.80
2023-02-28T12:46:50.082Z,4.80
2023-02-28T12:49:38.014Z,5.20
2023-02-28T12:52:06.265Z,5.20
2023-02-28T12:54:58.621Z,5.40
2023-02-28T12:57:35.264Z,5.70
2023-02-28T13:00:13.213Z,5.90
2023-02-28T13:03:06.365Z,5.20
2023-02-28T13:05:57.418Z,5.10
2023-02-28T13:08:52.852Z,5.20
2023-02-28T13:11:56.774Z,5.10
2023-02-28T13:14:26.695Z,5.30
2023-02-28T13:16:56.880Z,5.30
2023-02-28T13:19:26.582Z,5.40
2023-02-28T13:21:54.359Z,5.50
2023-02-28T13:24:50.348Z,5.30
2023-02-28T13:27:17.224Z,5.00
2023-02-28T13:29:45.636Z,4.80
2023-02-28T13:32:12.548Z,4.80
2023-02-28T13:34:50.092Z,4.80
2023-02-28T13:37:23.232Z,4.70
2023-02-28T13:39:54.617Z,4.90
2023-02-28T13:42:35.460Z,4.90
2023-02-28T13:45:05.256Z,4.70
2023-02-28T13:47:37.981Z,4.70
2023-02-28T13:50:28.185Z,4.70
2023-02-28T13:53:09.725Z,4.60
2023-02-28T13:55:48.210Z,4.40
2023-02-28T13:58:37.066Z,4.40
2023-02-28T14:01:16.631Z,4.40
2023-02-28T14:03:58.754Z,4.70
2023-02-28T14:06:36.756Z,4.80
2023-02-28T14:09:13.308Z,4.90
2023-02-28T14:11:42.707Z,4.80
2023-02-28T14:14:30.953Z,4.90
2023-02-28T14:16:59.157Z,4.80
2023-02-28T14:19:32.573Z,4.80
2023-02-28T14:22:33.448Z,4.80
2023-02-28T14:25:41.423Z,4.80
2023-02-28T14:28:25.082Z,5.00
2023-02-28T14:31:20.514Z,5.10
2023-02-28T14:34:03.734Z,5.20
2023-02-28T14:36:37.327Z,5.20
2023-02-28T14:39:26.980Z,5.30
2023-02-28T14:41:54.413Z,5.20
2023-02-28T14:44:25.214Z,5.20
2023-02-28T14:46:57.872Z,5.30
2023-02-28T14:49:30.709Z,5.30
2023-02-28T14:52:18.791Z,5.50
2023-02-28T14:54:46.645Z,5.30
2023-02-28T14:57:29.944Z,5.00
2023-02-28T15:00:34.116Z,4.80
2023-02-28T15:03:18.213Z,4.70
2023-02-28T15:05:56.608Z,4.70
2023-02-28T15:08:24.538Z,4.80
2023-02-28T15:10:56.038Z,4.70
2023-02-28T15:13:24.308Z,4.70
2023-02-28T15:16:03.250Z,4.70
2023-02-28T15:18:39.690Z,4.40
2023-02-28T15:21:13.297Z,4.30
2023-02-28T15:23:41.774Z,4.30
2023-02-28T15:26:12.041Z,4.30
2023-02-28T15:28:39.393Z,4.20
2023-02-28T15:31:55.869Z,4.20
2023-02-28T15:34:36.973Z,4.20
2023-02-28T15:37:31.071Z,4.10
2023-02-28T15:40:12.475Z,4.10
2023-02-28T15:42:39.675Z,4.10
2023-02-28T15:45:07.185Z,4.00
2023-02-28T15:47:34.486Z,4.00
2023-02-28T15:50:14.446Z,3.90
2023-02-28T15:52:44.634Z,3.90
2023-02-28T15:55:23.740Z,3.90
2023-02-28T15:57:59.580Z,3.90
2023-02-28T16:00:29.176Z,3.90
2023-02-28T16:02:56.513Z,4.00
2023-02-28T16:05:33.851Z,3.90
2023-02-28T16:08:03.624Z,3.80
2023-02-28T16:10:31.173Z,3.80
2023-02-28T16:12:59.108Z,3.70
2023-02-28T16:15:29.697Z,3.70
2023-02-28T16:17:58.214Z,3.60
2023-02-28T16:20:30.563Z,3.60
2023-02-28T16:23:00.631Z,3.60
2023-02-28T16:25:49.157Z,3.50
2023-02-28T16:28:45.025Z,3.50
2023-02-28T16:31:17.611Z,3.40
2023-02-28T16:33:45.958Z,3.20
2023-02-28T16:36:21.757Z,3.20
2023-02-28T16:38:48.812Z,3.00
2023-02-28T16:41:20.399Z,2.90
2023-02-28T16:43:49.674Z,2.70
2023-02-28T16:46:17.845Z,2.70
2023-02-28T16:48:46.381Z,2.70
2023-02-28T16:51:17.221Z,2.60
2023-02-28T16:53:45.461Z,2.50
2023-02-28T16:56:24.837Z,2.40
2023-02-28T16:58:52.819Z,2.30
2023-02-28T17:01:23.316Z,2.30
2023-02-28T17:03:50.805Z,2.10
2023-02-28T17:06:32.060Z,2.00
2023-02-28T17:09:00.343Z,1.90
2023-02-28T17:11:28.274Z,1.90
2023-02-28T17:13:55.965Z,1.80
2023-02-28T17:16:29.207Z,1.70
2023-02-28T17:18:59.272Z,1.70
2023-02-28T17:21:26.487Z,1.70
2023-02-28T17:23:53.518Z,1.70
2023-02-28T17:26:22.257Z,1.60
2023-02-28T17:28:50.241Z,1.60
2023-02-28T17:31:17.360Z,1.50
2023-02-28T17:33:44.695Z,1.40
2023-02-28T17:36:16.112Z,1.30
2023-02-28T17:38:43.279Z,1.30
2023-02-28T17:41:12.465Z,1.20
2023-02-28T17:43:39.919Z,1.20
2023-02-28T17:46:12.590Z,1.10
2023-02-28T17:48:39.530Z,1.00
2023-02-28T17:51:06.551Z,1.00
2023-02-28T17:53:33.612Z,1.00
2023-02-28T17:56:00.542Z,0.90
2023-02-28T17:58:27.590Z,0.80
2023-02-28T18:00:54.935Z,0.80
2023-02-28T18:03:22.350Z,0.70
2023-02-28T18:05:50.213Z,0.70
2023-02-28T18:08:17.866Z,0.60
2023-02-28T18:10:44.890Z,0.60
2023-02-28T18:13:13.614Z,0.60
2023-02-28T18:15:40.725Z,0.50
2023-02-28T18:18:07.836Z,0.40
2023-02-28T18:20:36.032Z,0.30
2023-02-28T18:23:03.742Z,0.30
2023-02-28T18:25:30.655Z,0.20
2023-02-28T18:28:00.889Z,0.10
2023-02-28T18:30:31.510Z,0.10
2023-02-28T18:33:04.092Z,0.10
2023-02-28T18:35:35.415Z,0.10
2023-02-28T18:38:03.351Z,0.10
2023-02-28T18:40:30.333Z,0.00
2023-02-28T18:42:57.939Z,0.00
2023-02-28T18:45:24.902Z,0.00
2023-02-28T18:47:52.426Z,0.00
2023-02-28T18:50:19.528Z,0.00
2023-02-28T18:52:46.590Z,-0.10
2023-02-28T18:55:18.662Z,-0.10
2023-02-28T18:57:48.730Z,-0.10
2023-02-28T19:00:22.635Z,-0.10
2023-02-28T19:02:52.773Z,-0.10
2023-02-28T19:05:19.938Z,-0.20
2023-02-28T19:07:47.625Z,-0.10
2023-02-28T19:10:15.110Z,-0.20
2023-02-28T19:12:44.769Z,-0.20
2023-02-28T19:15:12.735Z,-0.20
2023-02-28T19:17:40.053Z,-0.30
2023-02-28T19:20:08.901Z,-0.30
2023-02-28T19:22:37.148Z,-0.20
2023-02-28T19:25:05.875Z,-0.20
2023-02-28T19:27:33.121Z,-0.20
2023-02-28T19:30:00.148Z,-0.20
2023-02-28T19:32:27.547Z,-0.20
2023-02-28T19:34:54.633Z,-0.20
2023-02-28T19:37:21.523Z,-0.20
2023-02-28T19:39:48.665Z,-0.10
2023-02-28T19:42:17.782Z,-0.10
2023-02-28T19:44:45.399Z,-0.10
2023-02-28T19:47:13.119Z,-0.10
2023-02-28T19:49:40.376Z,-0.10
2023-02-28T19:52:11.767Z,-0.10
2023-02-28T19:54:42.235Z,-0.10
2023-02-28T19:57:09.135Z,-0.10
2023-02-28T19:59:39.771Z,0.00
2023-02-28T20:02:17.497Z,0.00
2023-02-28T20:04:51.066Z,-0.10
2023-02-28T20:07:22.153Z,-0.10
2023-02-28T20:09:49.765Z,-0.20
2023-02-28T20:12:25.098Z,-0.20
2023-02-28T20:14:53.491Z,-0.20
2023-02-28T20:17:20.369Z,-0.30
2023-02-28T20:19:47.410Z,-0.30
2023-02-28T20:22:14.341Z,-0.30
2023-02-28T20:24:41.300Z,-0.40
2023-02-28T20:27:08.352Z,-0.40
2023-02-28T20:29:35.884Z,-0.40
2023-02-28T20:32:03.019Z,-0.30
2023-02-28T20:34:30.029Z,-0.40
2023-02-28T20:36:58.814Z,-0.40
2023-02-28T20:39:26.342Z,-0.40
2023-02-28T20:41:53.399Z,-0.40
2023-02-28T20:44:21.849Z,-0.40
2023-02-28T20:46:51.255Z,-0.40
2023-02-28T20:49:18.212Z,-0.40
2023-02-28T20:51:45.730Z,-0.40
2023-02-28T20:54:12.826Z,-0.40
2023-02-28T20:56:40.139Z,-0.40
2023-02-28T20:59:07.163Z,-0.40
2023-02-28T21:01:34.284Z,-0.40
2023-02-28T21:04:06.214Z,-0.40
2023-02-28T21:06:37.208Z,-0.40
2023-02-28T21:09:09.476Z,-0.40
2023-02-28T21:11:38.687Z,-0.40
2023-02-28T21:14:14.917Z,-0.40
2023-02-28T21:16:42.739Z,-0.50
2023-02-28T21:19:10.649Z,-0.50
2023-02-28T21:21:44.101Z,-0.50
2023-02-28T21:24:12.676Z,-0.50
2023-02-28T21:26:42.209Z,-0.60
2023-02-28T21:29:09.335Z,-0.60
2023-02-28T21:31:36.744Z,-0.60
2023-02-28T21:34:07.344Z,-0.60
2023-02-28T21:36:45.329Z,-0.60
2023-02-28T21:39:25.492Z,-0.50
2023-02-28T21:41:53.534Z,-0.60
2023-02-28T21:44:22.674Z,-0.60
2023-02-28T21:46:54.958Z,-0.60
2023-02-28T21:49:22.994Z,-0.70
2023-02-28T21:51:49.918Z,-0.70
2023-02-28T21:54:16.964Z,-0.80
2023-02-28T21:56:44.616Z,-0.80
2023-02-28T21:59:11.849Z,-0.80
2023-02-28T22:01:40.917Z,-0.80
2023-02-28T22:04:10.654Z,-0.80
2023-02-28T22:06:41.076Z,-0.80
2023-02-28T22:09:10.144Z,-0.90
2023-02-28T22:11:38.300Z,-0.90
2023-02-28T22:14:06.731Z,-0.90
2023-02-28T22:16:50.806Z,-0.90
2023-02-28T22:19:20.599Z,-0.80
2023-02-28T22:21:47.838Z,-0.80
2023-02-28T22:24:17.869Z,-0.90
2023-02-28T22:26:45.220Z,-0.80
2023-02-28T22:29:12.185Z,-0.90
2023-02-28T22:31:39.292Z,-0.90
2023-02-28T22:34:11.173Z,-0.90
2023-02-28T22:36:40.032Z,-1.00
2023-02-28T22:39:07.419Z,-1.00
2023-02-28T22:41:34.426Z,-1.00
2023-02-28T22:44:04.230Z,-1.00
2023-02-28T22:46:33.292Z,-1.00
2023-02-28T22:49:01.892Z,-1.00
2023-02-28T22:51:29.754Z,-1.00
2023-02-28T22:53:58.468Z,-1.10
2023-02-28T22:56:28.904Z,-1.10
2023-02-28T22:58:57.871Z,-1.10
2023-02-28T23:01:27.195Z,-1.20
2023-02-28T23:03:54.721Z,-1.10
2023-02-28T23:06:28.199Z,-1.20
2023-02-28T23:08:59.194Z,-1.20
2023-02-28T23:11:29.342Z,-1.20
2023-02-28T23:14:00.087Z,-1.30
2023-02-28T23:16:34.869Z,-1.30
2023-02-28T23:19:04.939Z,-1.30
2023-02-28T23:21:32.508Z,-1.30
2023-02-28T23:24:02.916Z,-1.30
2023-02-28T23:26:31.909Z,-1.30
2023-02-28T23:28:59.505Z,-1.40
2023-02-28T23:31:26.757Z,-1.40
2023-02-28T23:33:53.676Z,-1.50
2023-02-28T23:36:20.867Z,-1.50
2023-02-28T23:38:49.947Z,-1.50
2023-02-28T23:41:18.571Z,-1.40
2023-02-28T23:43:46.040Z,-1.40
2023-02-28T23:46:14.171Z,-1.40
2023-02-28T23:48:41.217Z,-1.40
2023-02-28T23:51:11.350Z,-1.50
2023-02-28T23:53:41.524Z,-1.50
2023-02-28T23:56:10.823Z,-1.50
2023-02-28T23:58:37.796Z,-1.60
